Chesney Shores, Illinois
Current Conditions -  °F | °C
As of 10:55 AM on Sunday 23 Nov 2014 (Local Time) from KUGN Reporting Station
Overcast Overcast  
Wind Chill: 50°   Ceiling: 9500
Heat Index: 50°   Visibility: 9mi
Dew Point: 45°   Wind: 12mph
Humidity: 83%   Direction: 180°S
Pressure: 29.67"   Gusts: NA
Location:  42.4132°N, 88.0615°W
Report Text: KUGN 231655Z 18010KT 9SM SCT020 SCT045 OVC095 10/07 A2967 RMK AO2 RAE44 SLP048 P0001 T01000072
Loading
Personal Weather Stations






























Interactive Weather Map New forecast layout! Learn more

10-Day Weather Forecast

Advertisements
Track Severe Weather on mobile